Who's Online

We have 6 guests online

Aviation WX

[source: ADDS]
METAR
KIAD 250852Z 29003KT 10SM CLR 14/13 A3002 RMK AO2 SLP164 T01390128 53007 =
TAF
KIAD 250538Z 2506/2612 35003KT P6SM FEW150 FM252000 25005KT P6SM FEW250 FM260200 18004KT P6SM SCT200 =
SR / SS: 23:49 / 14:07 UTC (Washington-Dulles 2014-07-25)

JoomlaWatch Agent

Home Products and Services

This section describes Multilink Systems products and services

 

 

Under construction Please Standby